地図

経路データ

SID SEASON NUMBER BASIN SUBBASIN NAME ISO_TIME NATURE LAT LON WMO_WIND WMO_PRES WMO_AGENCY TRACK_TYPE DIST2LAND LANDFALL IFLAG USA_AGENCY USA_ATCF_ID USA_LAT USA_LON USA_RECORD USA_STATUS USA_WIND USA_PRES USA_SSHS USA_R34_NE USA_R34_SE USA_R34_SW USA_R34_NW USA_R50_NE USA_R50_SE USA_R50_SW USA_R50_NW USA_R64_NE USA_R64_SE USA_R64_SW USA_R64_NW USA_POCI USA_ROCI USA_RMW USA_EYE TOKYO_LAT TOKYO_LON TOKYO_GRADE TOKYO_WIND TOKYO_PRES TOKYO_R50_DIR TOKYO_R50_LONG TOKYO_R50_SHORT TOKYO_R30_DIR TOKYO_R30_LONG TOKYO_R30_SHORT TOKYO_LAND CMA_LAT CMA_LON CMA_CAT CMA_WIND CMA_PRES HKO_LAT HKO_LON HKO_CAT HKO_WIND HKO_PRES NEWDELHI_LAT NEWDELHI_LON NEWDELHI_GRADE NEWDELHI_WIND NEWDELHI_PRES NEWDELHI_CI NEWDELHI_DP NEWDELHI_POCI REUNION_LAT REUNION_LON REUNION_TYPE REUNION_WIND REUNION_PRES REUNION_TNUM REUNION_CI REUNION_RMW REUNION_R34_NE REUNION_R34_SE REUNION_R34_SW REUNION_R34_NW REUNION_R50_NE REUNION_R50_SE REUNION_R50_SW REUNION_R50_NW REUNION_R64_NE REUNION_R64_SE REUNION_R64_SW REUNION_R64_NW BOM_LAT BOM_LON BOM_TYPE BOM_WIND BOM_PRES BOM_TNUM BOM_CI BOM_RMW BOM_R34_NE BOM_R34_SE BOM_R34_SW BOM_R34_NW BOM_R50_NE BOM_R50_SE BOM_R50_SW BOM_R50_NW BOM_R64_NE BOM_R64_SE BOM_R64_SW BOM_R64_NW BOM_ROCI BOM_POCI BOM_EYE BOM_POS_METHOD BOM_PRES_METHOD NADI_LAT NADI_LON NADI_CAT NADI_WIND NADI_PRES WELLINGTON_LAT WELLINGTON_LON WELLINGTON_WIND WELLINGTON_PRES DS824_LAT DS824_LON DS824_STAGE DS824_WIND DS824_PRES TD9636_LAT TD9636_LON TD9636_STAGE TD9636_WIND TD9636_PRES TD9635_LAT TD9635_LON TD9635_WIND TD9635_PRES TD9635_ROCI NEUMANN_LAT NEUMANN_LON NEUMANN_CLASS NEUMANN_WIND NEUMANN_PRES MLC_LAT MLC_LON MLC_CLASS MLC_WIND MLC_PRES USA_GUST BOM_GUST BOM_GUST_PER REUNION_GUST REUNION_GUST_PER USA_SEAHGT USA_SEARAD_NE USA_SEARAD_SE USA_SEARAD_SW USA_SEARAD_NW STORM_SPEED STORM_DIR
1970151N11261 1970 46 EP MM ADELE 1970-05-30 12:00:00 TS 11.1000 -98.6000 45 hurdat_epa main 548 548 O________OO___ hurdat_epa EP011970 11.1000 -98.6000 TS 45 0 11.1000 -98.6000 TC 45 11.1000 -98.6000 1 7 271
1970151N11261 1970 46 EP MM ADELE 1970-05-30 15:00:00 TS 11.1035 -98.9579 main 563 563 P________PP___ EP011970 11.1101 -98.9575 TS 45 0 11.1101 -98.9575 TC 45 11.0771 -98.9594 1 7 269
1970151N11261 1970 46 EP MM ADELE 1970-05-30 18:00:00 TS 11.0906 -99.3010 45 hurdat_epa main 572 572 O________OP___ hurdat_epa EP011970 11.1000 -99.3000 TS 45 0 11.1000 -99.3000 TC 45 11.0532 -99.3050 1 6 265
1970151N11261 1970 46 EP MM ADELE 1970-05-30 21:00:00 TS 11.0515 -99.6166 main 582 582 P________PP___ EP011970 11.0575 -99.6150 TS 45 0 11.0575 -99.6150 TC 45 11.0276 -99.6231 1 6 261
1970151N11261 1970 46 EP MM ADELE 1970-05-31 00:00:00 TS 11.0000 -99.9000 45 hurdat_epa main 604 604 O________OO___ hurdat_epa EP011970 11.0000 -99.9000 TS 45 0 11.0000 -99.9000 TC 45 11.0000 -99.9000 2 5 259
1970151N11261 1970 46 EP MM ADELE 1970-05-31 03:00:00 TS 10.9481 -100.152 main 627 627 P________PP___ EP011970 10.9425 -100.158 TS 45 0 10.9425 -100.158 TC 45 10.9705 -100.131 2 5 259
1970151N11261 1970 46 EP MM ADELE 1970-05-31 06:00:00 TS 10.9084 -100.390 45 hurdat_epa main 635 635 O________OP___ hurdat_epa EP011970 10.9000 -100.400 TS 45 0 10.9000 -100.400 TC 45 10.9418 -100.348 2 5 264
1970151N11261 1970 46 EP MM ADELE 1970-05-31 09:00:00 TS 10.8973 -100.608 main 642 642 P________PP___ EP011970 10.8924 -100.612 TS 45 0 10.8924 -100.612 TC 45 10.9173 -100.590 2 5 269
1970151N11261 1970 46 EP MM ADELE 1970-05-31 12:00:00 TS 10.9000 -100.900 45 hurdat_epa main 653 653 O________OO___ hurdat_epa EP011970 10.9000 -100.900 TS 45 0 10.9000 -100.900 TC 45 10.9000 -100.900 4 7 270
1970151N11261 1970 46 EP MM ADELE 1970-05-31 15:00:00 TS 10.8987 -101.357 main 674 674 P________PP___ EP011970 10.9001 -101.363 TS 45 0 10.9001 -101.363 TC 45 10.8931 -101.336 4 10 270
1970151N11261 1970 46 EP MM ADELE 1970-05-31 18:00:00 TS 10.8986 -101.888 45 hurdat_epa main 691 691 O________OP___ hurdat_epa EP011970 10.9000 -101.900 TS 45 0 10.9000 -101.900 TC 45 10.8929 -101.840 4 10 270
1970151N11261 1970 46 EP MM ADELE 1970-05-31 21:00:00 TS 10.8992 -102.401 main 711 711 P________PP___ EP011970 10.9000 -102.408 TS 60 0 10.9000 -102.408 TC 60 10.8962 -102.374 4 10 270
1970151N11261 1970 46 EP MM ADELE 1970-06-01 00:00:00 TS 10.9000 -102.900 75 hurdat_epa main 735 735 O________OO___ hurdat_epa EP011970 10.9000 -102.900 HU 75 1 10.9000 -102.900 TC 75 10.9000 -102.900 4 9 270
1970151N11261 1970 46 EP MM ADELE 1970-06-01 03:00:00 TS 10.9014 -103.356 main 758 758 P________PP___ EP011970 10.8999 -103.358 HU 75 1 10.8999 -103.358 TC 75 10.9076 -103.348 4 9 270
1970151N11261 1970 46 EP MM ADELE 1970-06-01 06:00:00 TS 10.9029 -103.797 75 hurdat_epa main 773 773 O________OP___ hurdat_epa EP011970 10.9000 -103.800 HU 75 1 10.9000 -103.800 TC 75 10.9143 -103.785 4 9 270
1970151N11261 1970 46 EP MM ADELE 1970-06-01 09:00:00 TS 10.9087 -104.234 main 790 790 P________PP___ EP011970 10.9074 -104.235 HU 75 1 10.9074 -104.235 TC 75 10.9139 -104.229 4 9 270
1970151N11261 1970 46 EP MM ADELE 1970-06-01 12:00:00 TS 10.9000 -104.700 75 hurdat_epa main 814 814 O________OO___ hurdat_epa EP011970 10.9000 -104.700 HU 75 1 10.9000 -104.700 TC 75 10.9000 -104.700 4 10 267
1970151N11261 1970 46 EP MM ADELE 1970-06-01 15:00:00 TS 10.8580 -105.228 main 841 841 P________PP___ EP011970 10.8575 -105.235 HU 75 1 10.8575 -105.235 TC 75 10.8600 -105.201 4 11 265
1970151N11261 1970 46 EP MM ADELE 1970-06-01 18:00:00 TS 10.8014 -105.787 75 hurdat_epa main 874 874 O________OP___ hurdat_epa EP011970 10.8000 -105.800 HU 75 1 10.8000 -105.800 TC 75 10.8070 -105.733 4 11 264
1970151N11261 1970 46 EP MM ADELE 1970-06-01 21:00:00 TS 10.7500 -106.328 main 902 902 P________PP___ EP011970 10.7498 -106.335 HU 75 1 10.7498 -106.335 TC 75 10.7505 -106.298 4 11 265
1970151N11261 1970 46 EP MM ADELE 1970-06-02 00:00:00 TS 10.7000 -106.900 75 hurdat_epa main 926 926 O________OO___ hurdat_epa EP011970 10.7000 -106.900 HU 75 1 10.7000 -106.900 TC 75 10.7000 -106.900 4 12 265
1970151N11261 1970 46 EP MM ADELE 1970-06-02 03:00:00 TS 10.6450 -107.527 main 963 963 P________PP___ EP011970 10.6424 -107.528 HU 75 1 10.6424 -107.528 TC 75 10.6553 -107.523 4 13 266
1970151N11261 1970 46 EP MM ADELE 1970-06-02 06:00:00 TS 10.6039 -108.197 75 hurdat_epa main 999 999 O________OP___ hurdat_epa EP011970 10.6000 -108.200 HU 75 1 10.6000 -108.200 TC 75 10.6195 -108.183 4 13 268
1970151N11261 1970 46 EP MM ADELE 1970-06-02 09:00:00 TS 10.5876 -108.877 main 1039 1039 P________PP___ EP011970 10.5848 -108.878 HU 75 1 10.5848 -108.878 TC 75 10.5989 -108.876 4 14 270
1970151N11261 1970 46 EP MM ADELE 1970-06-02 12:00:00 TS 10.6000 -109.600 75 hurdat_epa main 1083 1083 O________OO___ hurdat_epa EP011970 10.6000 -109.600 HU 75 1 10.6000 -109.600 TC 75 10.6000 -109.600 4 15 272
1970151N11261 1970 46 EP MM ADELE 1970-06-02 15:00:00 TS 10.6370 -110.372 main 1135 1135 P________PP___ EP011970 10.6425 -110.392 HU 75 1 10.6425 -110.392 TC 75 10.6149 -110.290 4 15 273
1970151N11261 1970 46 EP MM ADELE 1970-06-02 18:00:00 TS 10.6906 -111.163 75 hurdat_epa main 1173 1173 O________OP___ hurdat_epa EP011970 10.7000 -111.200 HU 75 1 10.7000 -111.200 TC 75 10.6529 -111.016 4 15 274
1970151N11261 1970 46 EP MM ADELE 1970-06-02 21:00:00 TS 10.7363 -111.880 main 1219 1219 P________PP___ EP011970 10.7418 -111.898 HU 75 1 10.7418 -111.898 TC 75 10.7145 -111.809 4 15 274
1970151N11261 1970 46 EP MM ADELE 1970-06-03 00:00:00 TS 10.8000 -112.700 75 hurdat_epa main 1266 1266 O________OO___ hurdat_epa EP011970 10.8000 -112.700 HU 75 1 10.8000 -112.700 TC 75 10.8000 -112.700 4 19 275
1970151N11261 1970 46 EP MM ADELE 1970-06-03 03:00:00 TS 10.8853 -113.801 main 1340 1340 P________PP___ EP011970 10.8852 -113.798 HU 75 1 10.8852 -113.798 TC 75 10.8855 -113.813 4 23 275
1970151N11261 1970 46 EP MM ADELE 1970-06-03 06:00:00 TS 10.9987 -115.002 75 hurdat_epa main 1424 1424 O________OP___ hurdat_epa EP011970 11.0000 -115.000 HU 75 1 11.0000 -115.000 TC 75 10.9935 -115.010 4 24 276
1970151N11261 1970 46 EP MM ADELE 1970-06-03 09:00:00 TS 11.1340 -116.181 main 1475 1469 P________PP___ EP011970 11.1352 -116.182 HU 75 1 11.1352 -116.182 TC 75 11.1293 -116.176 4 22 278
1970151N11261 1970 46 EP MM ADELE 1970-06-03 12:00:00 TS 11.3000 -117.200 75 hurdat_epa main 1505 1505 O________OO___ hurdat_epa EP011970 11.3000 -117.200 HU 75 1 11.3000 -117.200 TC 75 11.3000 -117.200 4 17 282
1970151N11261 1970 46 EP MM ADELE 1970-06-03 15:00:00 TS 11.4838 -117.898 main 1525 1525 P________PP___ EP011970 11.4768 -117.883 HU 70 1 11.4768 -117.883 TC 70 11.5118 -117.957 4 13 289
1970151N11261 1970 46 EP MM ADELE 1970-06-03 18:00:00 TS 11.7120 -118.432 65 hurdat_epa main 1537 1534 O________OP___ hurdat_epa EP011970 11.7000 -118.400 HU 65 1 11.7000 -118.400 TC 65 11.7598 -118.560 4 12 296
1970151N11261 1970 46 EP MM ADELE 1970-06-03 21:00:00 TS 11.9996 -118.995 main 1547 1545 P________PP___ EP011970 11.9925 -118.980 HU 62 0 11.9925 -118.980 TC 62 12.0281 -119.057 4 12 299
1970151N11261 1970 46 EP MM ADELE 1970-06-04 00:00:00 TS 12.3000 -119.500 60 hurdat_epa main 1554 1552 O________OO___ hurdat_epa EP011970 12.3000 -119.500 TS 60 0 12.3000 -119.500 TC 60 12.3000 -119.500 2 11 302
1970151N11261 1970 46 EP MM ADELE 1970-06-04 03:00:00 TS 12.5614 -119.925 main 1556 1556 P________PP___ EP011970 12.5573 -119.915 TS 57 0 12.5573 -119.915 TC 57 12.5778 -119.964 2 10 303
1970151N11261 1970 46 EP MM ADELE 1970-06-04 06:00:00 TS 12.8103 -120.318 55 hurdat_epa main 1568 1568 O________OP___ hurdat_epa EP011970 12.8000 -120.300 TS 55 0 12.8000 -120.300 TC 55 12.8517 -120.387 2 10 302
1970151N11261 1970 46 EP MM ADELE 1970-06-04 09:00:00 TS 13.0719 -120.752 main 1581 1581 P________PP___ EP011970 13.0650 -120.742 TS 55 0 13.0650 -120.742 TC 55 13.0997 -120.792 2 10 300
1970151N11261 1970 46 EP MM ADELE 1970-06-04 12:00:00 TS 13.3000 -121.200 55 hurdat_epa main 1592 1590 O________OO___ hurdat_epa EP011970 13.3000 -121.200 TS 55 0 13.3000 -121.200 TC 55 13.3000 -121.200 2 10 295
1970151N11261 1970 46 EP MM ADELE 1970-06-04 15:00:00 TS 13.4782 -121.648 main 1600 1600 P________PP___ EP011970 13.4874 -121.650 TS 52 0 13.4874 -121.650 TC 52 13.4413 -121.639 2 9 288
1970151N11261 1970 46 EP MM ADELE 1970-06-04 18:00:00 TS 13.5864 -122.097 50 hurdat_epa main 1624 1624 O________OP___ hurdat_epa EP011970 13.6000 -122.100 TS 50 0 13.6000 -122.100 TC 50 13.5322 -122.085 2 9 279
1970151N11261 1970 46 EP MM ADELE 1970-06-04 21:00:00 TS 13.6203 -122.548 main 1652 1652 P________PP___ EP011970 13.6299 -122.550 TS 47 0 13.6299 -122.550 TC 47 13.5819 -122.539 2 9 271
1970151N11261 1970 46 EP MM ADELE 1970-06-05 00:00:00 TS 13.6000 -123.000 45 hurdat_epa main 1687 1687 O________OO___ hurdat_epa EP011970 13.6000 -123.000 TS 45 0 13.6000 -123.000 TC 45 13.6000 -123.000 2 9 266
1970151N11261 1970 46 EP MM ADELE 1970-06-05 03:00:00 TS 13.5590 -123.449 main 1715 1715 P________PP___ EP011970 13.5499 -123.443 TS 45 0 13.5499 -123.443 TC 45 13.5955 -123.476 2 9 264
1970151N11261 1970 46 EP MM ADELE 1970-06-05 06:00:00 TS 13.5130 -123.912 45 hurdat_epa main 1760 1760 O________OP___ hurdat_epa EP011970 13.5000 -123.900 TS 45 0 13.5000 -123.900 TC 45 13.5649 -123.958 2 9 266
1970151N11261 1970 46 EP MM ADELE 1970-06-05 09:00:00 TS 13.4993 -124.407 main 1797 1797 P________PP___ EP011970 13.4925 -124.400 TS 45 0 13.4925 -124.400 TC 45 13.5268 -124.436 2 10 269
1970151N11261 1970 46 EP MM ADELE 1970-06-05 12:00:00 TS 13.5000 -124.900 45 hurdat_epa main 1835 1835 O________OO___ hurdat_epa EP011970 13.5000 -124.900 TS 45 0 13.5000 -124.900 TC 45 13.5000 -124.900 2 9 270
1970151N11261 1970 46 EP MM ADELE 1970-06-05 15:00:00 TS 13.4927 -125.357 main 1873 1873 P________PP___ EP011970 13.4924 -125.365 TS 42 0 13.4924 -125.365 TC 42 13.4939 -125.327 2 9 270
1970151N11261 1970 46 EP MM ADELE 1970-06-05 18:00:00 TS 13.5009 -125.789 40 hurdat_epa main 1904 1904 O________OP___ hurdat_epa EP011970 13.5000 -125.800 TS 40 0 13.5000 -125.800 TC 40 13.5043 -125.743 2 8 273
1970151N11261 1970 46 EP MM ADELE 1970-06-05 21:00:00 TS 13.5354 -126.186 main 1936 1936 P________PP___ EP011970 13.5348 -126.193 TS 37 0 13.5348 -126.193 TC 37 13.5376 -126.162 2 8 277
1970151N11261 1970 46 EP MM ADELE 1970-06-06 00:00:00 TS 13.6000 -126.600 35 hurdat_epa main 1960 1960 O________OO___ hurdat_epa EP011970 13.6000 -126.600 TS 35 0 13.6000 -126.600 TC 35 13.6000 -126.600 2 9 280
1970151N11261 1970 46 EP MM ADELE 1970-06-06 03:00:00 TS 13.6847 -127.081 main 1994 1994 P________PP___ EP011970 13.6850 -127.085 TS 35 0 13.6850 -127.085 TC 35 13.6838 -127.066 2 10 282
1970151N11261 1970 46 EP MM ADELE 1970-06-06 06:00:00 TS 13.7994 -127.591 35 hurdat_epa main 2028 2028 O________OP___ hurdat_epa EP011970 13.8000 -127.600 TS 35 0 13.8000 -127.600 TC 35 13.7971 -127.555 2 10 284
1970151N11261 1970 46 EP MM ADELE 1970-06-06 09:00:00 TS 13.9352 -128.081 main 2054 2045 P________PP___ EP011970 13.9348 -128.085 TS 35 0 13.9348 -128.085 TC 35 13.9368 -128.067 2 10 287
1970151N11261 1970 46 EP MM ADELE 1970-06-06 12:00:00 TS 14.1000 -128.600 35 hurdat_epa main 2071 2071 O________OO___ hurdat_epa EP011970 14.1000 -128.600 TS 35 0 14.1000 -128.600 TC 35 14.1000 -128.600 6 11 288
1970151N11261 1970 46 EP MM ADELE 1970-06-06 15:00:00 TS 14.2906 -129.185 main 2097 2097 P________PP___ EP011970 14.2925 -129.193 TS 32 -1 14.2925 -129.193 TC 32 14.2832 -129.155 6 12 289
1970151N11261 1970 46 EP MM ADELE 1970-06-06 18:00:00 TS 14.4962 -129.785 30 hurdat_epa main 2125 2124 O________OP___ hurdat_epa EP011970 14.5000 -129.800 TD 30 -1 14.5000 -129.800 TC 30 14.4812 -129.726 6 12 290
1970151N11261 1970 46 EP MM ADELE 1970-06-06 21:00:00 TS 14.6999 -130.354 main 2154 2154 P________PP___ EP011970 14.7026 -130.365 TD 27 -1 14.7026 -130.365 TC 27 14.6887 -130.310 6 12 291
1970151N11261 1970 46 EP MM ADELE 1970-06-07 00:00:00 TS 14.9000 -130.900 25 hurdat_epa main 2177 O________OO___ hurdat_epa EP011970 14.9000 -130.900 TD 25 -1 14.9000 -130.900 TC 25 14.9000 -130.900 6 11 291

IBTrACS Databaseについて

本データベースは、米国NOAAが公開する1842年以降の世界の熱帯低気圧のベストトラックデータアーカイブInternational Best Track Archive for Climate Stewardship (IBTrACS)を、ウェブで閲覧しやすい形式に変換したものです。

最終更新日:2021-12-03